Time;durP1;ratioP1;P1;durP2;ratioP2;P2;SDS_P1;SDS_P2;PMS_P1;PMS_P2;Temp;Humidity;BMP_temperature;BMP_pressure;BME280_temperature;BME280_humidity;BME280_pressure;Samples;Min_cycle;Max_cycle;Signal;HPM_P1;HPM_P2
2023/08/27 00:00:41;;;;;;;0.50;0.50;;;;;;;;;;6125520;23;20002;-73
2023/08/27 00:03:07;;;;;;;1.95;0.50;;;;;;;;;;6134775;23;20382;-72
2023/08/27 00:05:33;;;;;;;0.82;0.50;;;;;;;;;;6134874;23;19994;-73
2023/08/27 00:07:59;;;;;;;0.63;0.50;;;;;;;;;;6125037;23;20013;-73
2023/08/27 00:10:26;;;;;;;1.40;0.45;;;;;;;;;;6125279;23;19998;-72
2023/08/27 00:12:52;;;;;;;0.60;0.60;;;;;;;;;;6134701;23;20073;-73
2023/08/27 00:15:18;;;;;;;1.33;0.70;;;;;;;;;;6134736;23;20009;-72
2023/08/27 00:17:44;;;;;;;0.40;0.40;;;;;;;;;;6135060;23;20429;-73
2023/08/27 00:20:10;;;;;;;0.77;0.57;;;;;;;;;;6134634;23;20002;-73
2023/08/27 00:22:37;;;;;;;1.17;0.30;;;;;;;;;;6133117;23;20001;-73
2023/08/27 00:25:03;;;;;;;0.90;0.40;;;;;;;;;;6134814;23;20074;-73
2023/08/27 00:27:29;;;;;;;1.65;0.80;;;;;;;;;;6124888;23;20402;-73
2023/08/27 00:29:55;;;;;;;0.77;0.40;;;;;;;;;;6134636;23;19994;-74
2023/08/27 00:32:21;;;;;;;0.50;0.50;;;;;;;;;;6134715;23;20015;-73
2023/08/27 00:34:47;;;;;;;0.43;0.43;;;;;;;;;;6125028;23;20338;-73
2023/08/27 00:37:13;;;;;;;0.90;0.50;;;;;;;;;;6134285;23;20018;-73
2023/08/27 00:39:39;;;;;;;0.95;0.30;;;;;;;;;;6134501;23;20002;-73
2023/08/27 00:42:05;;;;;;;0.50;0.50;;;;;;;;;;6134504;23;20002;-73
2023/08/27 00:44:31;;;;;;;0.95;0.57;;;;;;;;;;6134381;23;20012;-73
2023/08/27 00:46:59;;;;;;;0.43;0.40;;;;;;;;;;6134801;23;20422;-73
2023/08/27 00:49:25;;;;;;;0.45;0.45;;;;;;;;;;6134655;23;20084;-73
2023/08/27 00:51:51;;;;;;;0.60;0.50;;;;;;;;;;6124863;23;20017;-73
2023/08/27 00:54:18;;;;;;;0.80;0.50;;;;;;;;;;6124535;23;20002;-73
2023/08/27 00:56:46;;;;;;;0.50;0.50;;;22.40;72.50;;;;;;6124369;23;20002;-73
2023/08/27 00:59:13;;;;;;;0.73;0.63;;;22.40;72.80;;;;;;6134307;23;20093;-72
2023/08/27 01:01:42;;;;;;;0.38;0.38;;;22.40;66.70;;;;;;6134407;23;19994;-73
2023/08/27 01:04:08;;;;;;;0.73;0.43;;;;;;;;;;6124854;23;20375;-73
2023/08/27 01:06:34;;;;;;;0.80;0.52;;;;;;;;;;6134330;23;20017;-73
2023/08/27 01:09:41;;;;;;;0.50;0.40;;;22.50;67.20;;;;;;6134335;23;20082;-73
2023/08/27 01:12:35;;;;;;;0.63;0.40;;;22.40;72.90;;;;;;6124410;23;19998;-74
2023/08/27 01:15:03;;;;;;;0.40;0.40;;;22.40;72.50;;;;;;6125508;23;19998;-73
2023/08/27 01:17:32;;;;;;;0.80;0.77;;;22.30;72.60;;;;;;6124790;23;20012;-73
2023/08/27 01:19:58;;;;;;;0.50;0.50;;;;;;;;;;6134418;23;20318;-74
2023/08/27 01:22:25;;;;;;;1.38;0.65;;;;;;;;;;6134155;23;20005;-73
2023/08/27 01:24:52;;;;;;;0.52;0.47;;;;;;;;;;6134223;23;20073;-73
2023/08/27 01:27:37;;;;;;;0.88;0.52;;;22.30;66.80;;;;;;6134306;23;20326;-73
2023/08/27 01:30:24;;;;;;;0.55;0.43;;;22.30;66.70;;;;;;6134228;23;19998;-73
2023/08/27 01:33:08;;;;;;;0.82;0.40;;;22.30;72.70;;;;;;6134299;23;20072;-73
2023/08/27 01:35:34;;;;;;;0.73;0.57;;;;;;;;;;6124444;23;19998;-73
2023/08/27 01:38:01;;;;;;;0.98;0.60;;;;;;;;;;6124082;23;20361;-72
2023/08/27 01:40:28;;;;;;;0.63;0.50;;;;;;;;;;6124659;23;20002;-72
2023/08/27 01:42:54;;;;;;;0.50;0.43;;;;;;;;;;6125077;23;20093;-73
2023/08/27 01:45:20;;;;;;;0.63;0.50;;;;;;;;;;6134079;23;20445;-72
2023/08/27 01:47:46;;;;;;;1.08;0.52;;;;;;;;;;6134065;23;20004;-72
2023/08/27 01:50:12;;;;;;;0.70;0.50;;;;;;;;;;6134010;23;19994;-72
2023/08/27 01:52:38;;;;;;;0.40;0.40;;;;;;;;;;6134176;23;20337;-73
2023/08/27 01:55:05;;;;;;;0.60;0.40;;;;;;;;;;6124187;23;20009;-79
2023/08/27 01:57:31;;;;;;;0.50;0.50;;;;;;;;;;6124430;23;20048;-79
2023/08/27 01:59:58;;;;;;;1.10;0.60;;;;;;;;;;6126419;23;20417;-79
2023/08/27 02:02:28;;;;;;;1.17;0.70;;;;;;;;;;6126572;23;20437;-80
2023/08/27 02:04:54;;;;;;;0.90;0.40;;;;;;;;;;6125122;23;20006;-80
2023/08/27 02:07:21;;;;;;;1.08;0.80;;;;;;;;;;6125106;23;20008;-80
2023/08/27 02:09:47;;;;;;;1.00;0.77;;;;;;;;;;6134836;23;20072;-80
2023/08/27 02:12:13;;;;;;;0.63;0.50;;;;;;;;;;6135172;23;20002;-79
2023/08/27 02:14:40;;;;;;;1.35;0.60;;;;;;;;;;6125075;23;20326;-80
2023/08/27 02:17:06;;;;;;;0.68;0.63;;;;;;;;;;6124643;23;20489;-80
2023/08/27 02:19:33;;;;;;;0.68;0.68;;;;;;;;;;6126415;23;20045;-80
2023/08/27 02:22:01;;;;;;;0.73;0.60;;;;;;;;;;6125000;23;20006;-79
2023/08/27 02:24:27;;;;;;;0.40;0.40;;;;;;;;;;6125178;23;20470;-79
2023/08/27 02:26:54;;;;;;;2.28;0.52;;;;;;;;;;6124690;23;20391;-80
2023/08/27 02:29:21;;;;;;;0.85;0.65;;;;;;;;;;6126071;23;20024;-80
2023/08/27 02:31:47;;;;;;;0.77;0.50;;;;;;;;;;6125016;23;20081;-80
2023/08/27 02:34:14;;;;;;;1.33;0.50;;;;;;;;;;6124811;23;20010;-79
2023/08/27 02:36:41;;;;;;;0.50;0.50;;;;;;;;;;6124897;23;20084;-80
2023/08/27 02:39:07;;;;;;;1.17;0.63;;;;;;;;;;6124378;23;20033;-80
2023/08/27 02:41:33;;;;;;;0.50;0.47;;;;;;;;;;6134934;23;19998;-74
2023/08/27 02:43:59;;;;;;;0.73;0.68;;;;;;;;;;6134321;23;20419;-74
2023/08/27 02:46:25;;;;;;;0.63;0.50;;;;;;;;;;6134395;23;20085;-74
2023/08/27 02:48:52;;;;;;;1.42;0.60;;;;;;;;;;6124331;23;20017;-75
2023/08/27 02:51:18;;;;;;;0.82;0.40;;;;;;;;;;6124354;23;19998;-74
2023/08/27 02:53:45;;;;;;;0.75;0.55;;;;;;;;;;6124747;23;20006;-73
2023/08/27 02:56:11;;;;;;;0.75;0.75;;;;;;;;;;6124439;23;20006;-74
2023/08/27 02:58:38;;;;;;;1.10;0.50;;;;;;;;;;6124098;23;20014;-74
2023/08/27 03:01:05;;;;;;;0.90;0.50;;;;;;;;;;6124078;23;20072;-74
2023/08/27 03:03:31;;;;;;;0.50;0.45;;;;;;;;;;6123867;23;20017;-74
2023/08/27 03:05:58;;;;;;;1.05;0.68;;;;;;;;;;6124024;23;20430;-74
2023/08/27 03:08:24;;;;;;;0.88;0.60;;;;;;;;;;6126414;23;20085;-73
2023/08/27 03:10:51;;;;;;;1.60;0.70;;;;;;;;;;6124542;23;20350;-74
2023/08/27 03:13:18;;;;;;;0.52;0.45;;;;;;;;;;6123972;23;20009;-73
2023/08/27 03:15:44;;;;;;;1.00;0.65;;;;;;;;;;6123912;23;20407;-74
2023/08/27 03:18:11;;;;;;;1.40;0.50;;;;;;;;;;6124049;23;20018;-74
2023/08/27 03:20:37;;;;;;;0.70;0.50;;;;;;;;;;6124593;23;20002;-74
2023/08/27 03:23:04;;;;;;;0.60;0.60;;;;;;;;;;6124498;23;20010;-74
2023/08/27 03:25:30;;;;;;;0.65;0.45;;;;;;;;;;6124774;23;20009;-74
2023/08/27 03:27:58;;;;;;;0.60;0.40;;;21.90;72.80;;;;;;6124313;23;20009;-73
2023/08/27 03:30:24;;;;;;;0.80;0.60;;;;;;;;;;6135408;23;19994;-73
2023/08/27 03:32:50;;;;;;;1.08;0.70;;;;;;;;;;6135529;23;20012;-74
2023/08/27 03:35:17;;;;;;;1.05;0.50;;;;;;;;;;6135257;23;20021;-73
2023/08/27 03:37:43;;;;;;;0.85;0.50;;;;;;;;;;6125951;23;20017;-73
2023/08/27 03:40:09;;;;;;;1.00;0.40;;;;;;;;;;6135123;23;19994;-74
2023/08/27 03:42:35;;;;;;;0.95;0.52;;;;;;;;;;6125650;23;20013;-74
2023/08/27 03:45:01;;;;;;;0.45;0.40;;;;;;;;;;6135188;23;20002;-72
2023/08/27 03:47:27;;;;;;;0.85;0.50;;;;;;;;;;6135116;23;20082;-74
2023/08/27 03:49:54;;;;;;;0.60;0.52;;;;;;;;;;6135279;23;20020;-81
2023/08/27 03:52:42;;;;;;;0.82;0.43;;;;;;;;;;6135352;23;20014;-80
2023/08/27 03:55:10;;;;;;;0.95;0.60;;;;;;;;;;6122824;23;20121;-80
2023/08/27 03:57:38;;;;;;;0.50;0.40;;;;;;;;;;6125216;23;20021;-80
2023/08/27 04:00:05;;;;;;;1.00;0.40;;;;;;;;;;6124956;23;20422;-80
2023/08/27 04:02:31;;;;;;;0.65;0.55;;;;;;;;;;6125434;23;20001;-80
2023/08/27 04:04:58;;;;;;;0.57;0.30;;;;;;;;;;6125498;23;20009;-78
2023/08/27 04:07:24;;;;;;;0.40;0.40;;;;;;;;;;6125795;23;19998;-80
2023/08/27 04:09:51;;;;;;;1.00;0.52;;;;;;;;;;6125466;23;20002;-80
2023/08/27 04:12:17;;;;;;;1.10;0.47;;;;;;;;;;6124973;23;20422;-80
2023/08/27 04:14:44;;;;;;;0.40;0.40;;;;;;;;;;6125420;23;20002;-80
2023/08/27 04:17:10;;;;;;;1.52;0.45;;;;;;;;;;6124933;23;20013;-80
2023/08/27 04:19:37;;;;;;;0.63;0.45;;;;;;;;;;6125086;23;20393;-80
2023/08/27 04:22:04;;;;;;;0.50;0.50;;;;;;;;;;6124813;23;19998;-80
2023/08/27 04:24:30;;;;;;;0.45;0.40;;;;;;;;;;6124840;23;20092;-80
2023/08/27 04:26:58;;;;;;;0.32;0.30;;;;;;;;;;6124984;23;19998;-80
2023/08/27 04:29:26;;;;;;;0.77;0.60;;;;;;;;;;6125153;23;20002;-80
2023/08/27 04:31:53;;;;;;;0.38;0.38;;;;;;;;;;6124887;23;20413;-79
2023/08/27 04:34:20;;;;;;;0.98;0.40;;;;;;;;;;6125649;23;20391;-73
2023/08/27 04:36:46;;;;;;;0.95;0.60;;;;;;;;;;6124760;23;20002;-73
2023/08/27 04:39:13;;;;;;;0.68;0.47;;;;;;;;;;6124489;23;20077;-73
2023/08/27 04:41:40;;;;;;;0.70;0.43;;;;;;;;;;6125001;23;20061;-73
2023/08/27 04:44:06;;;;;;;0.40;0.30;;;;;;;;;;6124913;23;20006;-74
2023/08/27 04:46:33;;;;;;;1.63;0.47;;;;;;;;;;6124523;23;20002;-74
2023/08/27 04:49:00;;;;;;;0.73;0.50;;;;;;;;;;6124517;23;20006;-72
2023/08/27 04:51:27;;;;;;;0.60;0.50;;;;;;;;;;6124442;23;20056;-74
2023/08/27 04:53:53;;;;;;;1.50;0.40;;;21.70;70.00;;;;;;6124783;23;20073;-74
2023/08/27 04:56:20;;;;;;;0.52;0.40;;;;;;;;;;6124718;23;20093;-74
2023/08/27 04:58:46;;;;;;;0.73;0.57;;;;;;;;;;6124571;23;20097;-74
2023/08/27 05:01:12;;;;;;;1.40;0.40;;;;;;;;;;6134351;23;20063;-74
2023/08/27 05:03:39;;;;;;;0.50;0.40;;;;;;;;;;6134869;23;19998;-80
2023/08/27 05:06:05;;;;;;;0.47;0.30;;;;;;;;;;6134403;23;19998;-78
2023/08/27 05:08:32;;;;;;;0.80;0.47;;;;;;;;;;6134574;23;20006;-79
2023/08/27 05:10:58;;;;;;;0.30;0.30;;;;;;;;;;6125013;23;19998;-78
2023/08/27 05:13:25;;;;;;;0.70;0.30;;;;;;;;;;6125409;23;20006;-81
2023/08/27 05:15:52;;;;;;;0.82;0.50;;;;;;;;;;6125091;23;20002;-79
2023/08/27 05:18:18;;;;;;;0.50;0.50;;;;;;;;;;6124907;23;20334;-80
2023/08/27 05:20:46;;;;;;;1.05;0.60;;;21.70;73.40;;;;;;6134371;23;19998;-80
2023/08/27 05:23:12;;;;;;;0.55;0.38;;;;;;;;;;6134383;23;20025;-80
2023/08/27 05:25:38;;;;;;;0.40;0.40;;;;;;;;;;6134175;23;20053;-80
2023/08/27 05:28:04;;;;;;;0.40;0.40;;;;;;;;;;6134513;23;19998;-80
2023/08/27 05:30:31;;;;;;;0.75;0.70;;;;;;;;;;6134342;23;20021;-80
2023/08/27 05:32:57;;;;;;;1.35;0.50;;;;;;;;;;6133841;23;20006;-80
2023/08/27 05:35:24;;;;;;;0.60;0.30;;;;;;;;;;6132985;23;20009;-80
2023/08/27 05:37:51;;;;;;;0.88;0.60;;;;;;;;;;6124049;23;20013;-80
2023/08/27 05:40:17;;;;;;;0.68;0.40;;;;;;;;;;6124656;23;20012;-80
2023/08/27 05:42:44;;;;;;;0.50;0.50;;;;;;;;;;6124569;23;20370;-79
2023/08/27 05:45:10;;;;;;;0.50;0.40;;;;;;;;;;6124744;23;20057;-81
2023/08/27 05:47:36;;;;;;;1.08;0.47;;;;;;;;;;6133991;23;20113;-80
2023/08/27 05:50:02;;;;;;;0.68;0.50;;;;;;;;;;6134493;23;20041;-74
2023/08/27 05:52:28;;;;;;;1.60;0.30;;;;;;;;;;6133964;23;20093;-74
2023/08/27 05:54:54;;;;;;;0.30;0.30;;;;;;;;;;6133942;23;19998;-73
2023/08/27 05:57:20;;;;;;;0.73;0.40;;;;;;;;;;6133652;23;19998;-73
2023/08/27 05:59:46;;;;;;;0.60;0.60;;;;;;;;;;6133981;23;20010;-74
2023/08/27 06:02:13;;;;;;;0.65;0.47;;;;;;;;;;6133704;23;20366;-80
2023/08/27 06:04:39;;;;;;;1.05;0.57;;;;;;;;;;6133950;23;20002;-80
2023/08/27 06:07:07;;;;;;;0.90;0.70;;;;;;;;;;6133963;23;20029;-79
2023/08/27 06:09:33;;;;;;;0.68;0.50;;;;;;;;;;6134174;23;20001;-81
2023/08/27 06:11:59;;;;;;;0.45;0.45;;;;;;;;;;6134399;23;20003;-80
2023/08/27 06:14:25;;;;;;;0.60;0.50;;;;;;;;;;6133993;23;20021;-80
2023/08/27 06:16:51;;;;;;;0.50;0.43;;;;;;;;;;6134238;23;20020;-80
2023/08/27 06:19:17;;;;;;;0.98;0.50;;;;;;;;;;6134832;23;20453;-79
2023/08/27 06:21:43;;;;;;;0.88;0.45;;;;;;;;;;6134375;23;20005;-80
2023/08/27 06:24:09;;;;;;;0.50;0.40;;;;;;;;;;6134272;23;20001;-80
2023/08/27 06:26:35;;;;;;;0.75;0.38;;;;;;;;;;6134026;23;20314;-80
2023/08/27 06:29:01;;;;;;;1.25;0.52;;;;;;;;;;6134290;23;20002;-75
2023/08/27 06:31:27;;;;;;;2.30;0.45;;;;;;;;;;6134298;23;19998;-80
2023/08/27 06:33:53;;;;;;;0.60;0.55;;;;;;;;;;6134211;23;19998;-80
2023/08/27 06:36:19;;;;;;;1.20;0.40;;;;;;;;;;6134012;23;20018;-81
2023/08/27 06:38:45;;;;;;;0.70;0.70;;;;;;;;;;6134043;23;20469;-80
2023/08/27 06:41:11;;;;;;;1.23;0.68;;;;;;;;;;6134109;23;19994;-80
2023/08/27 06:43:37;;;;;;;0.40;0.40;;;;;;;;;;6134725;23;20018;-80
2023/08/27 06:46:03;;;;;;;1.95;0.60;;;;;;;;;;6136565;23;20010;-80
2023/08/27 06:48:29;;;;;;;1.02;0.57;;;;;;;;;;6136097;23;19998;-80
2023/08/27 06:50:56;;;;;;;0.50;0.40;;;;;;;;;;6126660;23;20021;-80
2023/08/27 06:53:22;;;;;;;0.57;0.30;;;;;;;;;;6135695;23;19998;-80
2023/08/27 06:55:48;;;;;;;1.35;0.50;;;;;;;;;;6135833;23;20002;-75
2023/08/27 06:58:14;;;;;;;0.95;0.47;;;;;;;;;;6148978;23;20019;-75
2023/08/27 07:00:40;;;;;;;0.98;0.50;;;;;;;;;;6135469;23;20009;-75
2023/08/27 07:03:06;;;;;;;0.60;0.60;;;;;;;;;;6135210;23;19998;-72
2023/08/27 07:05:33;;;;;;;1.38;0.60;;;;;;;;;;6135538;23;20005;-73
2023/08/27 07:07:59;;;;;;;2.38;0.93;;;;;;;;;;6135526;23;19998;-72
2023/08/27 07:10:25;;;;;;;1.95;0.60;;;;;;;;;;6135436;23;20000;-74
2023/08/27 07:12:52;;;;;;;1.38;0.60;;;;;;;;;;6135541;23;20085;-73
2023/08/27 07:15:18;;;;;;;1.42;0.80;;;;;;;;;;6136119;23;19998;-74
2023/08/27 07:17:44;;;;;;;0.60;0.60;;;;;;;;;;6135349;23;20013;-72
2023/08/27 07:20:11;;;;;;;1.88;0.80;;;21.70;71.70;;;;;;6135530;23;20032;-73
2023/08/27 07:22:37;;;;;;;1.88;0.80;;;;;;;;;;6135421;23;20029;-74
2023/08/27 07:25:05;;;;;;;1.08;0.57;;;21.70;73.20;;;;;;6125827;23;20374;-75
2023/08/27 07:27:31;;;;;;;0.77;0.70;;;;;;;;;;6135543;23;20322;-75
2023/08/27 07:29:57;;;;;;;2.05;0.68;;;;;;;;;;6135495;23;19998;-79
2023/08/27 07:32:24;;;;;;;1.20;0.90;;;;;;;;;;6135574;23;20099;-79
2023/08/27 07:34:50;;;;;;;0.75;0.50;;;;;;;;;;6135896;23;20302;-80
2023/08/27 07:37:16;;;;;;;1.48;0.93;;;;;;;;;;6135401;23;20006;-79
2023/08/27 07:39:42;;;;;;;1.38;0.65;;;;;;;;;;6135739;23;20006;-77
2023/08/27 07:42:08;;;;;;;1.83;0.85;;;;;;;;;;6135605;23;20113;-77
2023/08/27 07:44:34;;;;;;;2.42;0.68;;;;;;;;;;6148976;23;20002;-72
2023/08/27 07:47:00;;;;;;;2.58;0.80;;;;;;;;;;6135205;23;20077;-74
2023/08/27 07:49:26;;;;;;;5.10;0.77;;;;;;;;;;6135177;23;20387;-72
2023/08/27 07:51:53;;;;;;;1.55;1.02;;;;;;;;;;6135085;23;19998;-72
2023/08/27 07:54:19;;;;;;;1.42;0.90;;;;;;;;;;6135099;23;20026;-72
2023/08/27 07:56:45;;;;;;;4.68;1.23;;;;;;;;;;6135019;23;20005;-80
2023/08/27 07:59:11;;;;;;;0.93;0.63;;;;;;;;;;6135206;23;20080;-81
2023/08/27 08:01:38;;;;;;;1.52;0.57;;;;;;;;;;6134879;23;19994;-81
2023/08/27 08:04:04;;;;;;;1.88;0.75;;;;;;;;;;6148357;23;20006;-80
2023/08/27 08:06:30;;;;;;;1.70;0.82;;;;;;;;;;6134798;23;20028;-80
2023/08/27 08:08:56;;;;;;;1.52;0.70;;;;;;;;;;6135071;23;20001;-80
2023/08/27 08:11:22;;;;;;;1.02;0.70;;;;;;;;;;6134975;23;20021;-80
2023/08/27 08:13:48;;;;;;;3.30;0.70;;;;;;;;;;6135092;23;20005;-72
2023/08/27 08:16:14;;;;;;;1.55;0.80;;;;;;;;;;6135055;23;20423;-72
2023/08/27 08:18:40;;;;;;;0.88;0.73;;;;;;;;;;6134818;23;20009;-72
2023/08/27 08:21:06;;;;;;;1.92;0.80;;;;;;;;;;6135072;23;19998;-72
2023/08/27 08:23:33;;;;;;;1.73;0.95;;;;;;;;;;6134868;23;19998;-72
2023/08/27 08:25:59;;;;;;;0.68;0.68;;;;;;;;;;6134950;23;20041;-73
2023/08/27 08:28:26;;;;;;;1.27;0.52;;;;;;;;;;6134783;23;20005;-72
2023/08/27 08:30:52;;;;;;;2.45;0.70;;;;;;;;;;6135317;23;20004;-81
2023/08/27 08:33:18;;;;;;;1.40;0.80;;;;;;;;;;6147820;23;20002;-81
2023/08/27 08:35:45;;;;;;;0.68;0.68;;;;;;;;;;6125158;23;20027;-80
2023/08/27 08:38:11;;;;;;;0.70;0.55;;;;;;;;;;6124653;23;20018;-80
2023/08/27 08:40:52;;;;;;;1.83;0.80;;;21.60;75.00;;;;;;6125203;23;19998;-80
2023/08/27 08:43:41;;;;;;;1.05;0.70;;;21.70;75.30;;;;;;6125158;23;19994;-72
2023/08/27 08:46:09;;;;;;;1.25;0.70;;;;;;;;;;6125363;23;20064;-72
2023/08/27 08:48:42;;;;;;;1.70;0.90;;;21.60;69.00;;;;;;6125197;23;20001;-71
2023/08/27 08:51:10;;;;;;;1.42;0.80;;;21.60;75.00;;;;;;6124997;23;20062;-72
2023/08/27 08:53:40;;;;;;;0.75;0.50;;;21.70;74.90;;;;;;6124790;23;20085;-72
2023/08/27 08:56:20;;;;;;;1.58;0.82;;;21.70;74.90;;;;;;6125141;23;20001;-71
2023/08/27 08:58:53;;;;;;;1.08;0.60;;;21.60;74.90;;;;;;6125214;23;20073;-72
2023/08/27 09:01:19;;;;;;;1.52;0.93;;;;;;;;;;6125018;23;20027;-72
2023/08/27 09:03:47;;;;;;;1.40;0.73;;;21.60;74.80;;;;;;6124886;23;20080;-72
2023/08/27 09:06:19;;;;;;;0.98;0.52;;;21.70;74.60;;;;;;6124879;23;20073;-72
2023/08/27 09:08:47;;;;;;;1.67;0.70;;;21.70;71.70;;;;;;6124543;23;20104;-72
2023/08/27 09:11:13;;;;;;;1.00;0.63;;;;;;;;;;6124966;23;20010;-72
2023/08/27 09:13:40;;;;;;;1.10;0.77;;;;;;;;;;6125071;23;20006;-72
2023/08/27 09:16:07;;;;;;;0.60;0.60;;;;;;;;;;6124729;23;20006;-72
2023/08/27 09:18:34;;;;;;;0.70;0.70;;;21.70;74.60;;;;;;6125017;23;20013;-72
2023/08/27 09:21:01;;;;;;;0.90;0.60;;;;;;;;;;6125015;23;20381;-72
2023/08/27 09:23:28;;;;;;;0.60;0.60;;;21.70;72.70;;;;;;6125098;23;20069;-72
2023/08/27 09:25:58;;;;;;;1.13;0.57;;;21.70;72.70;;;;;;6125043;23;19998;-72
2023/08/27 09:28:25;;;;;;;0.88;0.50;;;;;;;;;;6125336;23;19994;-72
2023/08/27 09:30:51;;;;;;;0.65;0.60;;;;;;;;;;6124517;23;20070;-72
2023/08/27 09:33:18;;;;;;;0.47;0.47;;;;;;;;;;6124533;23;20006;-71
2023/08/27 09:35:45;;;;;;;1.67;0.77;;;;;;;;;;6124971;23;20002;-72
2023/08/27 09:38:14;;;;;;;0.50;0.43;;;21.60;73.20;;;;;;6124370;23;20469;-72
2023/08/27 09:40:46;;;;;;;0.50;0.50;;;;;;;;;;6125057;23;19998;-80
2023/08/27 09:43:12;;;;;;;2.05;0.50;;;;;;;;;;6134204;23;20005;-80
2023/08/27 09:45:39;;;;;;;0.57;0.50;;;;;;;;;;6124857;23;20021;-79
2023/08/27 09:48:05;;;;;;;1.85;0.80;;;;;;;;;;6124722;23;20073;-80
2023/08/27 09:50:32;;;;;;;1.23;0.55;;;;;;;;;;6123456;23;20002;-79
2023/08/27 09:53:05;;;;;;;1.60;0.60;;;21.60;73.30;;;;;;6124856;23;20010;-80
2023/08/27 09:55:35;;;;;;;0.65;0.65;;;21.60;71.60;;;;;;6125338;23;20032;-80
2023/08/27 09:58:26;;;;;;;1.15;0.80;;;23.30;73.80;;;;;;6120510;23;20018;-80
2023/08/27 10:01:03;;;;;;;1.50;0.73;;;;;;;;;;6124759;23;19994;-78
2023/08/27 10:03:29;;;;;;;1.30;0.68;;;;;;;;;;6134448;23;20080;-79
2023/08/27 10:05:55;;;;;;;1.00;0.60;;;;;;;;;;6134338;23;20049;-80
2023/08/27 10:08:22;;;;;;;0.90;0.60;;;;;;;;;;6124803;23;20013;-86
2023/08/27 10:10:48;;;;;;;1.48;0.75;;;;;;;;;;6124996;23;20018;-83
2023/08/27 10:13:15;;;;;;;0.50;0.50;;;;;;;;;;6125279;23;20018;-85
2023/08/27 10:15:42;;;;;;;1.25;0.93;;;21.60;72.70;;;;;;6135231;23;19998;-84
2023/08/27 10:18:16;;;;;;;1.05;0.60;;;21.60;72.60;;;;;;6134377;23;19998;-81
2023/08/27 10:20:42;;;;;;;1.58;0.52;;;;;;;;;;6141746;23;20010;-82
2023/08/27 10:23:10;;;;;;;1.02;0.63;;;21.50;72.60;;;;;;6132916;23;20002;-84
2023/08/27 10:25:38;;;;;;;1.05;0.52;;;21.60;72.70;;;;;;6127330;23;19998;-84
2023/08/27 10:28:05;;;;;;;2.88;0.55;;;;;;;;;;6126929;23;20442;-88
2023/08/27 10:30:34;;;;;;;0.93;0.60;;;;;;;;;;6126770;23;20012;-86
2023/08/27 10:33:00;;;;;;;0.70;0.40;;;;;;;;;;6126313;23;19998;-81
2023/08/27 10:35:27;;;;;;;1.52;0.70;;;;;;;;;;6126408;23;20006;-87
2023/08/27 10:37:55;;;;;;;1.42;0.40;;;21.50;72.50;;;;;;6125845;23;20017;-82
2023/08/27 10:40:24;;;;;;;0.93;0.60;;;;;;;;;;6126307;23;20017;-86
2023/08/27 10:42:51;;;;;;;1.30;0.60;;;;;;;;;;6126858;23;20017;-83
2023/08/27 10:45:21;;;;;;;0.57;0.40;;;;;;;;;;6126555;23;20210;-81
2023/08/27 10:48:06;;;;;;;2.65;0.60;;;;;;;;;;6148980;23;20446;-80
2023/08/27 10:51:07;;;;;;;1.33;0.82;;;21.60;72.60;;;;;;6126571;23;20008;-79
2023/08/27 10:53:41;;;;;;;1.58;0.55;;;21.50;72.40;;;;;;6126495;23;20002;-81
2023/08/27 10:56:32;;;;;;;2.03;0.65;;;21.50;72.20;;;;;;6126579;23;20069;-81
2023/08/27 10:59:01;;;;;;;2.45;0.60;;;21.40;71.90;;;;;;6116163;23;20066;-78
2023/08/27 11:01:28;;;;;;;0.82;0.50;;;;;;;;;;6125741;23;19994;-80
2023/08/27 11:03:55;;;;;;;2.00;0.40;;;;;;;;;;6126354;23;20345;-83
2023/08/27 11:06:46;;;;;;;2.20;0.40;;;21.50;72.20;;;;;;6125683;23;19994;-76
2023/08/27 11:09:20;;;;;;;1.75;0.70;;;22.30;66.90;;;;;;6125713;23;19997;-77
2023/08/27 11:11:51;;;;;;;0.60;0.32;;;21.50;72.10;;;;;;6126149;23;20271;-77
2023/08/27 11:14:18;;;;;;;1.23;0.50;;;;;;;;;;6135594;23;20056;-76
2023/08/27 11:16:54;;;;;;;7.53;0.70;;;;;;;;;;6135275;23;19998;-77
2023/08/27 11:19:27;;;;;;;1.08;0.50;;;;;;;;;;6135236;23;20171;-77
2023/08/27 11:22:13;;;;;;;0.73;0.50;;;21.50;72.20;;;;;;6135557;23;20433;-77
2023/08/27 11:24:47;;;;;;;0.85;0.40;;;21.50;72.60;;;;;;6125940;23;20093;-76
2023/08/27 11:27:15;;;;;;;2.15;0.60;;;21.40;72.40;;;;;;6121292;23;20088;-78
2023/08/27 11:29:42;;;;;;;1.40;0.50;;;21.40;72.30;;;;;;6134933;23;20002;-78
2023/08/27 11:32:09;;;;;;;0.60;0.45;;;;;;;;;;6135145;23;19998;-81
2023/08/27 11:34:36;;;;;;;1.40;0.40;;;;;;;;;;6148593;23;20002;-80
2023/08/27 11:37:04;;;;;;;1.08;0.50;;;;;;;;;;6125690;23;20006;-80
2023/08/27 11:39:30;;;;;;;1.45;0.70;;;;;;;;;;6135464;23;20005;-73
2023/08/27 11:41:56;;;;;;;1.48;0.43;;;;;;;;;;6135223;23;20330;-75
2023/08/27 11:44:22;;;;;;;1.00;0.30;;;;;;;;;;6125889;23;20128;-74
2023/08/27 11:46:51;;;;;;;1.23;0.73;;;;;;;;;;6125809;23;20004;-73
2023/08/27 11:49:31;;;;;;;0.60;0.60;;;21.70;66.00;;;;;;6125648;23;20002;-75
2023/08/27 11:51:58;;;;;;;0.57;0.43;;;21.80;68.90;;;;;;6126225;23;20018;-73
2023/08/27 11:54:34;;;;;;;1.20;0.45;;;22.00;71.10;;;;;;6124189;23;20014;-73
2023/08/27 11:57:04;;;;;;;0.70;0.50;;;;;;;;;;6125826;23;20048;-73
2023/08/27 11:59:33;;;;;;;0.80;0.50;;;;;;;;;;6125285;23;20035;-73
2023/08/27 12:02:00;;;;;;;0.73;0.50;;;;;;;;;;6125591;23;20002;-74
2023/08/27 12:04:27;;;;;;;2.20;0.80;;;;;;;;;;6125582;23;20086;-74
2023/08/27 12:07:05;;;;;;;2.90;0.47;;;22.60;69.60;;;;;;6125687;23;20001;-73
2023/08/27 12:09:35;;;;;;;2.83;0.65;;;22.60;69.70;;;;;;6125734;23;20009;-73
2023/08/27 12:12:04;;;;;;;1.95;0.50;;;22.60;69.70;;;;;;6125273;23;20583;-74
2023/08/27 12:14:31;;;;;;;1.95;0.45;;;;;;;;;;6123263;23;20497;-73
2023/08/27 12:17:09;;;;;;;1.33;0.60;;;;;;;;;;6134814;23;20002;-80
2023/08/27 12:19:36;;;;;;;2.08;0.60;;;;;;;;;;6125510;23;20046;-78
2023/08/27 12:22:03;;;;;;;4.50;0.88;;;;;;;;;;6124929;23;20004;-79
2023/08/27 12:24:32;;;;;;;4.28;0.63;;;22.70;70.30;;;;;;6134929;23;19998;-79
2023/08/27 12:27:02;;;;;;;4.40;0.63;;;;;;;;;;6134932;23;20509;-79
2023/08/27 12:29:31;;;;;;;2.58;0.65;;;22.90;70.60;;;;;;6125329;23;20030;-79
2023/08/27 12:31:59;;;;;;;3.28;1.15;;;;;;;;;;6124831;23;20061;-79
2023/08/27 12:34:33;;;;;;;6.40;0.60;;;;;;;;;;6125564;23;20006;-79
2023/08/27 12:36:59;;;;;;;11.88;1.00;;;;;;;;;;6125028;23;20006;-79
2023/08/27 12:39:26;;;;;;;5.88;0.63;;;;;;;;;;6124980;23;20056;-79
2023/08/27 12:41:52;;;;;;;3.25;1.00;;;;;;;;;;6149162;23;20402;-78
2023/08/27 12:44:18;;;;;;;3.97;0.60;;;;;;;;;;6125938;23;20006;-75
2023/08/27 12:46:45;;;;;;;4.75;0.80;;;;;;;;;;6125243;23;20025;-79
2023/08/27 12:49:11;;;;;;;1.90;0.57;;;;;;;;;;6125098;23;20002;-79
2023/08/27 12:51:38;;;;;;;3.72;0.57;;;;;;;;;;6124658;23;20430;-79
2023/08/27 12:54:04;;;;;;;1.83;0.73;;;;;;;;;;6125053;23;20373;-79
2023/08/27 12:56:33;;;;;;;5.25;0.60;;;;;;;;;;6125102;23;20389;-79
2023/08/27 12:59:00;;;;;;;2.05;0.63;;;;;;;;;;6124811;23;20017;-79
2023/08/27 13:01:26;;;;;;;0.73;0.63;;;;;;;;;;6134441;23;19994;-79
2023/08/27 13:03:52;;;;;;;1.00;0.43;;;;;;;;;;6134389;23;20462;-74
2023/08/27 13:06:18;;;;;;;1.05;0.73;;;;;;;;;;6134394;23;19998;-74
2023/08/27 13:08:44;;;;;;;3.47;0.50;;;;;;;;;;6134340;23;20005;-74
2023/08/27 13:11:10;;;;;;;2.35;0.60;;;;;;;;;;6134282;23;20052;-74
2023/08/27 13:13:36;;;;;;;0.95;0.60;;;;;;;;;;6124402;23;20002;-74
2023/08/27 13:16:02;;;;;;;0.80;0.30;;;;;;;;;;6134260;23;20074;-74
2023/08/27 13:18:28;;;;;;;1.58;0.40;;;;;;;;;;6134179;23;20034;-74
2023/08/27 13:20:54;;;;;;;1.05;0.40;;;;;;;;;;6131795;23;20073;-74
2023/08/27 13:23:23;;;;;;;1.30;0.35;;;;;;;;;;6134197;23;20093;-75
2023/08/27 13:25:49;;;;;;;1.08;0.40;;;25.30;71.40;;;;;;6134286;23;20326;-75
2023/08/27 13:28:15;;;;;;;0.98;0.55;;;;;;;;;;6134285;23;19998;-75
2023/08/27 13:30:41;;;;;;;0.93;0.40;;;;;;;;;;6124859;23;20094;-74
2023/08/27 13:33:13;;;;;;;1.75;0.30;;;;;;;;;;6134392;23;20002;-79
2023/08/27 13:35:39;;;;;;;0.60;0.25;;;;;;;;;;6134527;23;20402;-79
2023/08/27 13:38:05;;;;;;;1.08;0.30;;;;;;;;;;6133885;23;20010;-80
2023/08/27 13:40:31;;;;;;;1.17;0.45;;;;;;;;;;6134537;23;20001;-80
2023/08/27 13:42:57;;;;;;;2.05;0.63;;;;;;;;;;6134266;23;20029;-80
2023/08/27 13:45:23;;;;;;;0.45;0.30;;;;;;;;;;6134187;23;20381;-80
2023/08/27 13:47:50;;;;;;;0.70;0.30;;;22.90;69.80;;;;;;6134122;23;20002;-79
2023/08/27 13:50:16;;;;;;;1.05;0.40;;;;;;;;;;6134229;23;20389;-79
2023/08/27 13:52:42;;;;;;;0.75;0.43;;;;;;;;;;6134109;23;20326;-79
2023/08/27 13:55:08;;;;;;;0.65;0.25;;;;;;;;;;6133853;23;19998;-79
2023/08/27 13:57:35;;;;;;;2.13;0.30;;;;;;;;;;6134183;23;20450;-79
2023/08/27 14:00:02;;;;;;;0.90;0.40;;;;;;;;;;6124448;23;20061;-81
2023/08/27 14:02:29;;;;;;;0.80;0.38;;;;;;;;;;6124616;23;20009;-79
2023/08/27 14:04:55;;;;;;;0.60;0.40;;;;;;;;;;6124499;23;20499;-79
2023/08/27 14:07:22;;;;;;;1.38;0.40;;;;;;;;;;6124111;23;20029;-80
2023/08/27 14:09:48;;;;;;;1.98;0.50;;;;;;;;;;6124435;23;20009;-75
2023/08/27 14:12:16;;;;;;;1.48;0.32;;;;;;;;;;6124599;23;20334;-75
2023/08/27 14:14:42;;;;;;;1.70;0.50;;;;;;;;;;6124268;23;20462;-75
2023/08/27 14:17:11;;;;;;;1.63;0.50;;;;;;;;;;6124094;23;20279;-75
2023/08/27 14:19:37;;;;;;;1.38;0.40;;;;;;;;;;6124418;23;20020;-75
2023/08/27 14:22:04;;;;;;;1.55;0.65;;;;;;;;;;6124522;23;20326;-75
2023/08/27 14:24:30;;;;;;;1.23;0.65;;;;;;;;;;6124088;23;20009;-75